createdAt,value
2019-03-24T00:00:05.488Z,13.93
2019-03-24T00:02:34.812Z,20.62
2019-03-24T00:05:04.805Z,23.02
2019-03-24T00:07:34.110Z,19.05
2019-03-24T00:10:04.099Z,20.92
2019-03-24T00:12:33.343Z,15.90
2019-03-24T00:15:03.015Z,19.95
2019-03-24T00:17:32.261Z,21.33
2019-03-24T00:20:01.624Z,23.95
2019-03-24T00:22:30.942Z,23.70
2019-03-24T00:25:00.362Z,23.50
2019-03-24T00:27:29.522Z,19.48
2019-03-24T00:29:58.899Z,21.57
2019-03-24T00:32:28.234Z,28.15
2019-03-24T00:34:57.508Z,22.65
2019-03-24T00:37:26.707Z,24.63
2019-03-24T00:39:56.124Z,21.23
2019-03-24T00:42:25.366Z,21.93
2019-03-24T00:44:54.709Z,21.90
2019-03-24T00:47:24.028Z,18.60
2019-03-24T00:49:53.409Z,17.80
2019-03-24T00:52:22.726Z,22.62
2019-03-24T00:54:52.211Z,23.67
2019-03-24T00:57:21.573Z,20.00
2019-03-24T00:59:50.965Z,23.77
2019-03-24T01:02:20.288Z,22.22
2019-03-24T01:04:49.680Z,29.18
2019-03-24T01:07:19.180Z,29.87
2019-03-24T01:09:48.715Z,23.38
2019-03-24T01:12:20.175Z,24.77
2019-03-24T01:14:49.386Z,26.48
2019-03-24T01:17:18.724Z,20.90
2019-03-24T01:19:47.928Z,32.13
2019-03-24T01:22:17.399Z,24.98
2019-03-24T01:24:46.915Z,25.12
2019-03-24T01:27:16.221Z,30.35
2019-03-24T01:29:45.621Z,34.70
2019-03-24T01:32:15.059Z,24.90
2019-03-24T01:34:44.433Z,25.95
2019-03-24T01:37:13.756Z,18.87
2019-03-24T01:39:43.153Z,33.50
2019-03-24T01:42:12.451Z,26.37
2019-03-24T01:44:41.747Z,27.65
2019-03-24T01:47:11.075Z,38.42
2019-03-24T01:49:40.358Z,35.43
2019-03-24T01:52:09.620Z,26.05
2019-03-24T01:54:39.086Z,25.95
2019-03-24T01:57:08.800Z,27.27
2019-03-24T01:59:40.571Z,36.03
2019-03-24T02:02:10.073Z,33.30
2019-03-24T02:04:39.504Z,29.50
2019-03-24T02:07:08.911Z,32.10
2019-03-24T02:09:38.449Z,29.15
2019-03-24T02:12:07.927Z,24.95
2019-03-24T02:14:39.617Z,30.88
2019-03-24T02:17:09.008Z,23.75
2019-03-24T02:19:38.291Z,23.57
2019-03-24T02:22:07.605Z,34.25
2019-03-24T02:24:36.993Z,24.30
2019-03-24T02:27:06.284Z,33.83
2019-03-24T02:29:35.703Z,28.12
2019-03-24T02:32:05.225Z,26.82
2019-03-24T02:34:34.522Z,24.05
2019-03-24T02:37:03.923Z,27.95
2019-03-24T02:39:33.622Z,31.60
2019-03-24T02:42:03.073Z,31.40
2019-03-24T02:44:32.393Z,23.07
2019-03-24T02:47:01.838Z,19.07
2019-03-24T02:49:31.122Z,35.63
2019-03-24T02:52:00.518Z,17.27
2019-03-24T02:54:29.869Z,28.17
2019-03-24T02:56:59.201Z,23.92
2019-03-24T02:59:28.412Z,24.55
2019-03-24T03:01:57.854Z,28.55
2019-03-24T03:04:27.096Z,31.50
2019-03-24T03:06:56.503Z,24.18
2019-03-24T03:09:25.853Z,22.15
2019-03-24T03:11:55.213Z,26.73
2019-03-24T03:14:24.523Z,32.98
2019-03-24T03:16:53.912Z,26.12
2019-03-24T03:19:23.223Z,23.25
2019-03-24T03:21:52.604Z,25.57
2019-03-24T03:24:21.955Z,32.75
2019-03-24T03:26:51.319Z,28.73
2019-03-24T03:29:20.628Z,28.15
2019-03-24T03:31:50.054Z,21.45
2019-03-24T03:34:19.366Z,31.45
2019-03-24T03:36:48.713Z,24.30
2019-03-24T03:39:18.061Z,30.23
2019-03-24T03:41:47.293Z,28.00
2019-03-24T03:44:16.580Z,19.75
2019-03-24T03:46:52.381Z,31.65
2019-03-24T03:49:17.138Z,24.37
2019-03-24T03:51:46.470Z,17.55
2019-03-24T03:54:15.685Z,25.97
2019-03-24T03:56:45.211Z,28.50
2019-03-24T03:59:14.409Z,17.50
2019-03-24T04:01:43.787Z,23.62
2019-03-24T04:04:13.141Z,26.15
2019-03-24T04:06:42.472Z,24.47
2019-03-24T04:09:11.809Z,20.55
2019-03-24T04:11:41.107Z,27.13
2019-03-24T04:14:10.519Z,22.87
2019-03-24T04:16:39.727Z,19.67
2019-03-24T04:19:09.114Z,29.60
2019-03-24T04:21:38.314Z,26.77
2019-03-24T04:24:07.719Z,21.77
2019-03-24T04:26:37.010Z,22.67
2019-03-24T04:29:06.307Z,25.68
2019-03-24T04:31:35.727Z,27.52
2019-03-24T04:34:05.116Z,27.75
2019-03-24T04:36:34.326Z,32.10
2019-03-24T04:39:04.607Z,29.72
2019-03-24T04:41:33.828Z,23.27
2019-03-24T04:44:03.243Z,26.45
2019-03-24T04:46:32.567Z,30.95
2019-03-24T04:49:01.839Z,28.40
2019-03-24T04:51:31.047Z,26.85
2019-03-24T04:54:00.394Z,29.32
2019-03-24T04:56:29.753Z,29.30
2019-03-24T04:58:59.067Z,30.75
2019-03-24T05:01:28.811Z,26.60
2019-03-24T05:03:58.233Z,26.77
2019-03-24T05:06:27.829Z,24.98
2019-03-24T05:08:57.671Z,21.82
2019-03-24T05:11:27.060Z,21.27
2019-03-24T05:13:56.290Z,25.37
2019-03-24T05:16:25.566Z,23.30
2019-03-24T05:18:54.906Z,31.05
2019-03-24T05:21:24.251Z,35.30
2019-03-24T05:23:53.584Z,36.60
2019-03-24T05:26:22.950Z,33.42
2019-03-24T05:28:52.185Z,20.88
2019-03-24T05:31:21.536Z,33.20
2019-03-24T05:33:50.862Z,27.20
2019-03-24T05:36:20.247Z,31.65
2019-03-24T05:38:49.588Z,39.58
2019-03-24T05:41:18.806Z,28.65
2019-03-24T05:43:48.098Z,29.75
2019-03-24T05:46:17.447Z,32.10
2019-03-24T05:48:46.696Z,25.37
2019-03-24T05:51:15.998Z,27.58
2019-03-24T05:53:45.375Z,30.77
2019-03-24T05:56:14.675Z,31.77
2019-03-24T05:58:44.190Z,31.77
2019-03-24T06:01:13.433Z,32.30
2019-03-24T06:03:42.707Z,32.45
2019-03-24T06:06:12.043Z,30.90
2019-03-24T06:08:41.375Z,34.40
2019-03-24T06:11:10.752Z,38.98
2019-03-24T06:13:40.122Z,30.37
2019-03-24T06:16:09.468Z,32.73
2019-03-24T06:18:38.795Z,36.30
2019-03-24T06:21:08.108Z,32.53
2019-03-24T06:23:37.537Z,34.85
2019-03-24T06:26:06.940Z,30.68
2019-03-24T06:28:36.218Z,33.73
2019-03-24T06:31:05.455Z,37.70
2019-03-24T06:33:34.806Z,54.53
2019-03-24T06:36:04.131Z,27.00
2019-03-24T06:38:33.510Z,25.95
2019-03-24T06:41:02.982Z,33.58
2019-03-24T06:43:32.267Z,22.42
2019-03-24T06:46:01.606Z,25.25
2019-03-24T06:48:31.015Z,37.25
2019-03-24T06:51:00.327Z,37.55
2019-03-24T06:53:29.721Z,32.80
2019-03-24T06:55:58.913Z,31.85
2019-03-24T06:58:28.248Z,32.30
2019-03-24T07:00:57.736Z,28.32
2019-03-24T07:03:27.148Z,32.80
2019-03-24T07:05:56.488Z,28.67
2019-03-24T07:08:26.119Z,31.55
2019-03-24T07:10:55.316Z,31.02
2019-03-24T07:13:24.721Z,35.85
2019-03-24T07:15:54.035Z,27.30
2019-03-24T07:18:23.472Z,32.17
2019-03-24T07:20:52.678Z,30.70
2019-03-24T07:23:21.954Z,37.03
2019-03-24T07:25:51.295Z,27.82
2019-03-24T07:28:20.625Z,26.12
2019-03-24T07:30:50.016Z,30.55
2019-03-24T07:33:19.340Z,25.88
2019-03-24T07:35:48.683Z,26.68
2019-03-24T07:38:18.078Z,25.88
2019-03-24T07:40:47.476Z,30.27
2019-03-24T07:43:16.888Z,29.15
2019-03-24T07:45:46.546Z,24.05
2019-03-24T07:48:19.385Z,25.52
2019-03-24T07:50:47.298Z,33.00
2019-03-24T07:53:16.667Z,27.17
2019-03-24T07:55:45.983Z,28.77
2019-03-24T07:58:15.322Z,28.05
2019-03-24T08:00:44.634Z,23.40
2019-03-24T08:03:13.940Z,21.42
2019-03-24T08:05:43.561Z,26.73
2019-03-24T08:08:13.200Z,29.82
2019-03-24T08:10:42.461Z,25.50
2019-03-24T08:13:11.695Z,32.58
2019-03-24T08:15:40.940Z,25.65
2019-03-24T08:18:10.247Z,22.20
2019-03-24T08:20:39.600Z,21.82
2019-03-24T08:23:08.957Z,26.00
2019-03-24T08:25:38.078Z,30.57
2019-03-24T08:28:07.435Z,27.10
2019-03-24T08:30:37.080Z,27.37
2019-03-24T08:33:06.494Z,24.00
2019-03-24T08:35:35.826Z,31.35
2019-03-24T08:38:05.275Z,19.23
2019-03-24T08:40:34.931Z,25.43
2019-03-24T08:43:04.512Z,24.80
2019-03-24T08:45:34.856Z,23.67
2019-03-24T08:48:04.225Z,18.92
2019-03-24T08:50:33.613Z,31.00
2019-03-24T08:53:03.031Z,26.80
2019-03-24T08:55:32.393Z,25.57
2019-03-24T08:58:01.746Z,25.45
2019-03-24T09:00:31.228Z,21.70
2019-03-24T09:03:00.422Z,24.60
2019-03-24T09:05:29.800Z,23.38
2019-03-24T09:07:59.279Z,26.17
2019-03-24T09:10:28.675Z,29.72
2019-03-24T09:12:58.196Z,20.32
2019-03-24T09:15:27.594Z,15.55
2019-03-24T09:17:56.938Z,24.25
2019-03-24T09:20:26.098Z,19.90
2019-03-24T09:22:55.395Z,18.92
2019-03-24T09:25:24.838Z,29.72
2019-03-24T09:27:54.189Z,16.48
2019-03-24T09:30:30.800Z,17.82
2019-03-24T09:33:00.154Z,17.45
2019-03-24T09:35:29.470Z,23.32
2019-03-24T09:37:58.801Z,20.57
2019-03-24T09:40:31.766Z,27.65
2019-03-24T09:43:02.003Z,24.05
2019-03-24T09:45:31.461Z,21.95
2019-03-24T09:48:00.976Z,15.48
2019-03-24T09:50:30.921Z,15.55
2019-03-24T09:53:00.270Z,18.60
2019-03-24T09:55:29.603Z,17.92
2019-03-24T09:57:58.979Z,23.20
2019-03-24T10:00:28.743Z,23.10
2019-03-24T10:02:58.079Z,15.80
2019-03-24T10:05:27.417Z,24.63
2019-03-24T10:07:56.660Z,19.23
2019-03-24T10:10:26.021Z,24.40
2019-03-24T10:12:55.354Z,19.02
2019-03-24T10:15:24.710Z,14.33
2019-03-24T10:17:54.049Z,22.80
2019-03-24T10:20:23.405Z,19.10
2019-03-24T10:22:52.761Z,17.37
2019-03-24T10:25:22.004Z,18.48
2019-03-24T10:27:51.344Z,14.15
2019-03-24T10:30:20.702Z,14.40
2019-03-24T10:32:50.134Z,14.30
2019-03-24T10:35:19.491Z,9.80
2019-03-24T10:37:48.854Z,17.92
2019-03-24T10:40:28.237Z,9.95
2019-03-24T10:42:49.520Z,21.02
2019-03-24T10:45:18.834Z,18.73
2019-03-24T10:47:48.158Z,12.60
2019-03-24T10:50:17.442Z,11.95
2019-03-24T10:52:46.762Z,12.20
2019-03-24T10:55:16.503Z,16.15
2019-03-24T10:57:45.843Z,12.07
2019-03-24T11:00:28.250Z,14.38
2019-03-24T11:02:57.620Z,13.48
2019-03-24T11:05:26.834Z,15.55
2019-03-24T11:07:56.173Z,9.50
2019-03-24T11:10:25.563Z,10.43
2019-03-24T11:12:54.896Z,9.43
2019-03-24T11:15:24.143Z,13.05
2019-03-24T11:17:53.360Z,11.50
2019-03-24T11:20:22.728Z,9.98
2019-03-24T11:22:52.039Z,11.70
2019-03-24T11:25:21.465Z,14.50
2019-03-24T11:27:50.780Z,12.35
2019-03-24T11:30:20.146Z,9.50
2019-03-24T11:32:49.496Z,11.00
2019-03-24T11:35:18.723Z,11.50
2019-03-24T11:37:48.050Z,12.80
2019-03-24T11:40:17.422Z,12.82
2019-03-24T11:42:46.815Z,14.95
2019-03-24T11:45:16.261Z,13.90
2019-03-24T11:47:45.672Z,12.28
2019-03-24T11:50:15.240Z,10.38
2019-03-24T11:52:44.576Z,15.28
2019-03-24T11:55:14.030Z,12.43
2019-03-24T11:57:43.342Z,13.28
2019-03-24T12:00:13.062Z,16.37
2019-03-24T12:02:42.425Z,13.70
2019-03-24T12:05:12.173Z,15.35
2019-03-24T12:07:41.504Z,14.98
2019-03-24T12:10:12.520Z,7.17
2019-03-24T12:12:41.844Z,8.10
2019-03-24T12:15:11.395Z,7.80
2019-03-24T12:17:40.787Z,5.42
2019-03-24T12:20:10.251Z,6.62
2019-03-24T12:22:39.593Z,5.90
2019-03-24T12:25:09.155Z,8.15
2019-03-24T12:27:38.577Z,6.22
2019-03-24T12:30:08.375Z,7.33
2019-03-24T12:32:37.707Z,7.75
2019-03-24T12:35:07.139Z,6.62
2019-03-24T12:37:36.470Z,7.37
2019-03-24T12:40:07.040Z,9.28
2019-03-24T12:42:36.387Z,6.10
2019-03-24T12:45:06.395Z,8.48
2019-03-24T12:47:35.742Z,9.08
2019-03-24T12:50:09.108Z,6.95
2019-03-24T12:52:36.355Z,13.00
2019-03-24T12:55:06.274Z,9.00
2019-03-24T12:57:35.594Z,8.60
2019-03-24T13:00:07.609Z,4.92
2019-03-24T13:02:36.949Z,5.45
2019-03-24T13:05:07.647Z,6.83
2019-03-24T13:07:36.957Z,5.90
2019-03-24T13:10:07.341Z,5.67
2019-03-24T13:12:36.654Z,6.08
2019-03-24T13:15:07.755Z,6.20
2019-03-24T13:17:37.159Z,4.08
2019-03-24T13:20:07.110Z,10.38
2019-03-24T13:22:36.416Z,10.35
2019-03-24T13:25:05.953Z,8.88
2019-03-24T13:27:35.288Z,6.75
2019-03-24T13:30:05.197Z,6.65
2019-03-24T13:32:34.544Z,7.00
2019-03-24T13:35:03.907Z,6.47
2019-03-24T13:37:33.220Z,4.92
2019-03-24T13:40:02.600Z,9.93
2019-03-24T13:42:31.933Z,4.65
2019-03-24T13:45:01.292Z,6.42
2019-03-24T13:47:30.627Z,6.35
2019-03-24T13:49:59.994Z,9.28
2019-03-24T13:52:29.351Z,7.28
2019-03-24T13:54:58.724Z,5.60
2019-03-24T13:57:28.152Z,8.93
2019-03-24T13:59:57.521Z,7.28
2019-03-24T14:02:26.869Z,9.50
2019-03-24T14:04:56.003Z,9.80
2019-03-24T14:07:25.330Z,7.78
2019-03-24T14:09:54.692Z,7.17
2019-03-24T14:12:24.011Z,7.62
2019-03-24T14:14:53.339Z,8.85
2019-03-24T14:17:22.705Z,6.53
2019-03-24T14:19:52.045Z,7.55
2019-03-24T14:22:21.296Z,9.40
2019-03-24T14:24:50.649Z,6.20
2019-03-24T14:27:19.973Z,12.13
2019-03-24T14:29:49.324Z,7.87
2019-03-24T14:32:18.577Z,10.32
2019-03-24T14:34:47.911Z,11.25
2019-03-24T14:37:17.136Z,11.05
2019-03-24T14:39:46.484Z,12.37
2019-03-24T14:42:15.806Z,8.28
2019-03-24T14:44:45.060Z,10.10
2019-03-24T14:47:14.409Z,8.63
2019-03-24T14:49:43.534Z,11.03
2019-03-24T14:52:12.871Z,10.80
2019-03-24T14:54:42.265Z,7.45
2019-03-24T14:57:11.594Z,11.83
2019-03-24T14:59:40.938Z,10.80
2019-03-24T15:02:10.297Z,10.60
2019-03-24T15:04:39.690Z,12.82
2019-03-24T15:07:09.032Z,13.20
2019-03-24T15:09:38.451Z,15.60
2019-03-24T15:12:07.832Z,11.60
2019-03-24T15:14:37.084Z,10.05
2019-03-24T15:17:06.467Z,9.48
2019-03-24T15:19:35.809Z,12.65
2019-03-24T15:22:05.136Z,12.20
2019-03-24T15:24:34.479Z,14.40
2019-03-24T15:27:04.088Z,15.75
2019-03-24T15:29:33.595Z,6.75
2019-03-24T15:32:02.969Z,14.50
2019-03-24T15:34:32.277Z,11.43
2019-03-24T15:37:01.627Z,10.65
2019-03-24T15:39:31.045Z,14.40
2019-03-24T15:42:00.439Z,11.55
2019-03-24T15:44:29.669Z,9.95
2019-03-24T15:46:59.015Z,7.28
2019-03-24T15:49:28.336Z,10.13
2019-03-24T15:51:57.676Z,10.32
2019-03-24T15:54:27.033Z,8.08
2019-03-24T15:56:56.382Z,10.03
2019-03-24T15:59:25.639Z,7.58
2019-03-24T16:01:55.042Z,14.70
2019-03-24T16:04:24.409Z,13.83
2019-03-24T16:06:53.854Z,13.90
2019-03-24T16:09:23.222Z,10.68
2019-03-24T16:11:52.647Z,12.10
2019-03-24T16:14:21.877Z,7.80
2019-03-24T16:16:51.268Z,10.65
2019-03-24T16:19:20.586Z,8.55
2019-03-24T16:21:49.952Z,9.78
2019-03-24T16:24:19.339Z,13.88
2019-03-24T16:26:48.682Z,7.08
2019-03-24T16:29:18.031Z,14.73
2019-03-24T16:31:47.291Z,9.15
2019-03-24T16:34:16.523Z,9.75
2019-03-24T16:36:45.873Z,8.40
2019-03-24T16:39:15.242Z,17.67
2019-03-24T16:41:44.592Z,9.48
2019-03-24T16:44:13.982Z,13.48
2019-03-24T16:46:43.344Z,12.40
2019-03-24T16:49:12.745Z,11.38
2019-03-24T16:51:42.051Z,9.90
2019-03-24T16:54:11.399Z,10.85
2019-03-24T16:56:40.746Z,10.43
2019-03-24T16:59:10.077Z,9.20
2019-03-24T17:01:39.639Z,13.38
2019-03-24T17:04:08.957Z,11.18
2019-03-24T17:06:38.355Z,5.45
2019-03-24T17:09:07.696Z,7.67
2019-03-24T17:11:37.152Z,11.18
2019-03-24T17:14:07.152Z,14.75
2019-03-24T17:16:36.657Z,13.88
2019-03-24T17:19:09.167Z,14.40
2019-03-24T17:21:49.275Z,15.32
2019-03-24T17:24:10.068Z,13.30
2019-03-24T17:26:39.876Z,10.30
2019-03-24T17:29:09.612Z,13.30
2019-03-24T17:31:39.634Z,9.25
2019-03-24T17:34:09.881Z,10.60
2019-03-24T17:36:39.669Z,13.03
2019-03-24T17:39:08.947Z,8.90
2019-03-24T17:41:38.350Z,8.00
2019-03-24T17:44:07.759Z,11.08
2019-03-24T17:46:37.060Z,12.93
2019-03-24T17:49:06.467Z,13.38
2019-03-24T17:51:35.840Z,13.40
2019-03-24T17:54:05.160Z,11.05
2019-03-24T17:56:34.539Z,35.13
2019-03-24T17:59:03.884Z,11.70
2019-03-24T18:01:33.222Z,13.30
2019-03-24T18:04:02.555Z,15.53
2019-03-24T18:06:31.904Z,14.07
2019-03-24T18:09:01.297Z,11.22
2019-03-24T18:11:30.737Z,10.40
2019-03-24T18:14:00.123Z,16.27
2019-03-24T18:16:29.517Z,16.65
2019-03-24T18:18:59.026Z,18.42
2019-03-24T18:21:28.347Z,14.73
2019-03-24T18:23:57.702Z,13.22
2019-03-24T18:26:27.091Z,15.08
2019-03-24T18:28:56.554Z,15.28
2019-03-24T18:31:25.889Z,12.03
2019-03-24T18:33:55.320Z,14.28
2019-03-24T18:36:24.688Z,14.80
2019-03-24T18:38:54.182Z,32.42
2019-03-24T18:41:23.735Z,19.55
2019-03-24T18:43:53.058Z,14.13
2019-03-24T18:46:22.695Z,15.13
2019-03-24T18:48:52.110Z,15.05
2019-03-24T18:51:21.488Z,22.90
2019-03-24T18:53:50.866Z,24.75
2019-03-24T18:56:20.228Z,9.70
2019-03-24T18:58:49.784Z,12.50
2019-03-24T19:01:19.049Z,16.75
2019-03-24T19:03:48.521Z,15.50
2019-03-24T19:06:17.863Z,14.80
2019-03-24T19:08:47.204Z,13.98
2019-03-24T19:11:16.697Z,12.28
2019-03-24T19:13:45.912Z,12.03
2019-03-24T19:16:15.284Z,16.85
2019-03-24T19:18:45.156Z,13.80
2019-03-24T19:21:14.519Z,13.35
2019-03-24T19:23:43.843Z,13.08
2019-03-24T19:26:13.331Z,10.80
2019-03-24T19:28:42.682Z,9.05
2019-03-24T19:31:12.021Z,21.80
2019-03-24T19:33:41.533Z,12.20
2019-03-24T19:36:11.029Z,14.68
2019-03-24T19:38:41.159Z,12.68
2019-03-24T19:41:10.824Z,8.65
2019-03-24T19:43:40.144Z,16.73
2019-03-24T19:46:09.668Z,9.70
2019-03-24T19:48:39.150Z,9.98
2019-03-24T19:51:08.498Z,9.83
2019-03-24T19:53:37.831Z,14.83
2019-03-24T19:56:07.133Z,10.78
2019-03-24T19:58:36.490Z,9.25
2019-03-24T20:01:05.816Z,8.80
2019-03-24T20:03:35.221Z,14.25
2019-03-24T20:06:04.628Z,9.10
2019-03-24T20:08:33.978Z,11.88
2019-03-24T20:11:03.387Z,8.28
2019-03-24T20:13:32.826Z,6.08
2019-03-24T20:16:02.191Z,9.30
2019-03-24T20:18:31.569Z,10.53
2019-03-24T20:21:00.976Z,8.63
2019-03-24T20:23:30.347Z,8.93
2019-03-24T20:25:59.853Z,14.45
2019-03-24T20:28:29.199Z,8.53
2019-03-24T20:30:58.543Z,10.10
2019-03-24T20:33:28.056Z,12.63
2019-03-24T20:35:57.380Z,10.78
2019-03-24T20:38:26.768Z,12.60
2019-03-24T20:40:56.130Z,14.23
2019-03-24T20:43:25.559Z,13.70
2019-03-24T20:45:55.063Z,13.88
2019-03-24T20:48:24.534Z,15.18
2019-03-24T20:50:53.854Z,16.17
2019-03-24T20:53:23.276Z,14.58
2019-03-24T20:55:52.629Z,17.17
2019-03-24T20:58:21.976Z,14.05
2019-03-24T21:00:51.220Z,15.63
2019-03-24T21:03:20.551Z,16.45
2019-03-24T21:05:49.919Z,13.88
2019-03-24T21:08:19.306Z,12.28
2019-03-24T21:10:48.825Z,13.08
2019-03-24T21:13:18.297Z,12.10
2019-03-24T21:15:47.685Z,12.50
2019-03-24T21:18:17.022Z,12.15
2019-03-24T21:20:46.377Z,17.15
2019-03-24T21:23:15.805Z,14.63
2019-03-24T21:25:45.190Z,14.15
2019-03-24T21:28:14.522Z,20.95
2019-03-24T21:30:44.382Z,17.75
2019-03-24T21:33:13.931Z,12.43
2019-03-24T21:35:43.294Z,16.00
2019-03-24T21:38:12.716Z,15.35
2019-03-24T21:40:42.080Z,13.10
2019-03-24T21:43:11.378Z,11.38
2019-03-24T21:45:40.893Z,8.78
2019-03-24T21:48:10.236Z,11.12
2019-03-24T21:50:39.640Z,12.85
2019-03-24T21:53:09.037Z,12.43
2019-03-24T21:55:38.369Z,12.53
2019-03-24T21:58:07.746Z,10.45
2019-03-24T22:00:37.502Z,13.60
2019-03-24T22:03:06.990Z,14.35
2019-03-24T22:05:36.770Z,9.73
2019-03-24T22:08:06.410Z,8.63
2019-03-24T22:10:36.253Z,15.08
2019-03-24T22:13:05.605Z,13.88
2019-03-24T22:15:36.079Z,14.13
2019-03-24T22:18:07.089Z,14.65
2019-03-24T22:20:48.011Z,16.93
2019-03-24T22:23:07.698Z,11.50
2019-03-24T22:25:37.031Z,7.75
2019-03-24T22:28:06.373Z,14.80
2019-03-24T22:30:35.742Z,13.90
2019-03-24T22:33:05.086Z,14.68
2019-03-24T22:35:34.424Z,13.72
2019-03-24T22:38:03.835Z,11.63
2019-03-24T22:40:33.160Z,13.18
2019-03-24T22:43:02.641Z,6.55
2019-03-24T22:45:32.063Z,14.78
2019-03-24T22:48:01.304Z,14.47
2019-03-24T22:50:30.632Z,10.95
2019-03-24T22:53:00.161Z,6.97
2019-03-24T22:55:29.474Z,15.70
2019-03-24T22:57:58.823Z,11.25
2019-03-24T23:00:50.879Z,8.43
2019-03-24T23:03:20.572Z,13.62
2019-03-24T23:05:49.941Z,15.60
2019-03-24T23:08:19.293Z,11.50
2019-03-24T23:10:48.607Z,7.15
2019-03-24T23:13:17.980Z,12.15
2019-03-24T23:15:47.335Z,15.75
2019-03-24T23:18:16.695Z,11.75
2019-03-24T23:20:46.037Z,9.75
2019-03-24T23:23:15.365Z,10.80
2019-03-24T23:25:44.693Z,9.88
2019-03-24T23:28:14.049Z,14.10
2019-03-24T23:30:43.391Z,11.12
2019-03-24T23:33:12.736Z,16.85
2019-03-24T23:35:42.081Z,7.05
2019-03-24T23:38:11.435Z,11.65
2019-03-24T23:40:40.758Z,19.77
2019-03-24T23:43:10.128Z,15.30
2019-03-24T23:45:39.441Z,11.63
2019-03-24T23:48:08.806Z,13.62
2019-03-24T23:50:38.156Z,15.38
2019-03-24T23:53:07.411Z,10.82
2019-03-24T23:55:36.713Z,21.15
2019-03-24T23:58:06.087Z,15.65
